createdAt,value
2017-11-09T00:09:19.622Z,52.2
2017-11-09T00:20:20.122Z,52.1
2017-11-09T00:31:18.949Z,51.8
2017-11-09T00:42:21.232Z,51.9
2017-11-09T00:53:19.879Z,50.7
2017-11-09T01:04:19.869Z,47.1
2017-11-09T01:15:19.176Z,46.3
2017-11-09T01:26:19.925Z,45.5
2017-11-09T01:37:19.358Z,44.4
2017-11-09T01:48:19.761Z,44.4
2017-11-09T01:59:19.429Z,46.6
2017-11-09T02:10:20.240Z,46.8
2017-11-09T02:21:19.277Z,47
2017-11-09T02:32:19.605Z,47.2
2017-11-09T02:43:19.528Z,47.3
2017-11-09T02:54:19.546Z,47.6
2017-11-09T03:05:21.021Z,47.4
2017-11-09T03:16:19.374Z,48.1
2017-11-09T03:27:19.609Z,47.9
2017-11-09T03:38:20.024Z,48.3
2017-11-09T03:49:19.674Z,48.7
2017-11-09T04:00:19.186Z,48.5
2017-11-09T04:11:19.312Z,49
2017-11-09T04:22:19.215Z,48.9
2017-11-09T04:33:19.655Z,49.1
2017-11-09T04:44:19.683Z,49.1
2017-11-09T04:55:19.872Z,49.4
2017-11-09T05:06:19.673Z,49.2
2017-11-09T05:17:19.791Z,49.3
2017-11-09T05:28:18.883Z,49.1
2017-11-09T05:39:18.974Z,49.5
2017-11-09T05:50:19.407Z,49.8
2017-11-09T06:01:18.786Z,49.9
2017-11-09T06:12:19.112Z,49.4
2017-11-09T06:23:19.589Z,49.4
2017-11-09T06:34:19.097Z,49.7
2017-11-09T06:45:19.207Z,49.8
2017-11-09T06:56:19.332Z,50
2017-11-09T07:07:19.325Z,50.2
2017-11-09T07:18:19.255Z,49.9
2017-11-09T07:29:19.679Z,49.7
2017-11-09T07:40:19.934Z,49.5
2017-11-09T07:51:19.526Z,50
2017-11-09T08:02:19.431Z,50
2017-11-09T08:13:19.096Z,49.4
2017-11-09T08:24:19.553Z,49.9
2017-11-09T08:35:19.510Z,49.4
2017-11-09T08:46:18.996Z,49.2
2017-11-09T08:57:20.188Z,49.5
2017-11-09T09:08:20.072Z,49.3
2017-11-09T09:19:19.461Z,49.8
2017-11-09T09:30:19.816Z,49.5
2017-11-09T09:41:19.179Z,50.1
2017-11-09T09:52:19.533Z,49.6
2017-11-09T10:03:19.894Z,50.4
2017-11-09T10:14:19.850Z,50
2017-11-09T10:25:19.948Z,46.7
2017-11-09T10:36:18.897Z,45.6
2017-11-09T10:47:19.267Z,44.6
2017-11-09T10:58:19.631Z,44.1
2017-11-09T11:09:19.235Z,42.2
2017-11-09T11:20:20.005Z,44
2017-11-09T11:31:19.864Z,43.7
2017-11-09T11:42:19.565Z,43.3
2017-11-09T11:53:18.964Z,45.9
2017-11-09T12:04:19.140Z,46.9
2017-11-09T12:15:19.706Z,46.5
2017-11-09T12:26:19.054Z,48
2017-11-09T12:37:19.793Z,48.6
2017-11-09T12:48:20.361Z,49.2
2017-11-09T12:59:19.830Z,49.7
2017-11-09T13:10:19.345Z,49.7
2017-11-09T13:21:19.729Z,49.9
2017-11-09T13:32:19.231Z,49
2017-11-09T13:43:19.524Z,46.8
2017-11-09T13:54:19.112Z,45.7
2017-11-09T14:05:19.510Z,45
2017-11-09T14:16:20.883Z,45.2
2017-11-09T14:27:18.861Z,44.1
2017-11-09T14:38:19.057Z,44.1
2017-11-09T14:49:19.353Z,43.3
2017-11-09T15:00:19.912Z,43.4
2017-11-09T15:11:19.284Z,45.5
2017-11-09T15:22:19.271Z,46.1
2017-11-09T15:33:19.496Z,46.4
2017-11-09T15:44:19.220Z,46.9
2017-11-09T15:55:19.799Z,47.1
2017-11-09T16:06:19.807Z,47.3
2017-11-09T16:17:19.650Z,47.7
2017-11-09T16:28:19.142Z,47.2
2017-11-09T16:39:19.600Z,47.5
2017-11-09T16:50:19.630Z,47.8
2017-11-09T17:01:19.180Z,48.1
2017-11-09T17:12:19.905Z,48.9
2017-11-09T17:23:19.365Z,48.8
2017-11-09T17:34:19.868Z,48.8
2017-11-09T17:45:19.471Z,47.4
2017-11-09T17:56:19.333Z,45.6
2017-11-09T18:07:19.358Z,43.9
2017-11-09T18:18:19.222Z,43.7
2017-11-09T18:29:19.465Z,43.6
2017-11-09T18:40:19.845Z,42.6
2017-11-09T18:51:19.182Z,44
2017-11-09T19:02:19.201Z,43.2
2017-11-09T19:13:20.196Z,43
2017-11-09T19:24:18.822Z,43.4
2017-11-09T19:35:19.605Z,44.8
2017-11-09T19:46:19.737Z,44.9
2017-11-09T19:57:19.675Z,45.5
2017-11-09T20:08:19.435Z,45.1
2017-11-09T20:19:20.305Z,45.1
2017-11-09T20:30:19.950Z,45.6
2017-11-09T20:41:19.123Z,45.8
2017-11-09T20:52:20.105Z,46
2017-11-09T21:03:19.435Z,46.2
2017-11-09T21:14:19.747Z,46.6
2017-11-09T21:25:19.621Z,46.4
2017-11-09T21:36:19.518Z,46.5
2017-11-09T21:47:19.391Z,46.9
2017-11-09T21:58:19.461Z,46.7
2017-11-09T22:09:19.755Z,47.1
2017-11-09T22:20:19.783Z,46.9
2017-11-09T22:31:19.378Z,46.9
2017-11-09T22:42:19.522Z,47.4
2017-11-09T22:53:19.902Z,47.2
2017-11-09T23:04:19.298Z,47.7
2017-11-09T23:15:19.945Z,47.3
2017-11-09T23:26:19.856Z,47.4
2017-11-09T23:37:19.954Z,47.3
2017-11-09T23:48:20.056Z,47.7
2017-11-09T23:59:19.259Z,47.8
